KFFL/FFL METAR and TAF weather

Enter ICAO airport designator
Station Type Date Time Source
KFFL METAR 2019/08/25 07:55 UTC NOAA

KFFL 250755Z AUTO 08005KT 10SM OVC120 16/14 A3008 RMK A01


Station Type Date Time Source
KFFL Decoded METAR 2019/08/25 07:55 UTC NOAA

Station name not available
Aug 25, 2019 - 03:55 AM EDT / 2019.08.25 0755 UTC
Wind: from the E (080 degrees) at 6 MPH (5 KT):0
Visibility: 10 mile(s):0
Sky conditions: overcast
Temperature: 60 F (16 C)
Dew Point: 57 F (14 C)
Relative Humidity: 87%
Pressure (altimeter): 30.08 in. Hg (1018 hPa)
ob: KFFL 250755Z AUTO 08005KT 10SM OVC120 16/14 A3008 RMK A01
cycle: 8

Station Type Date Time Source
KFFL TAF UTC NOAA

Error!

Example: see airport list